Schaijk, Netherlands
Current Conditions -  °F | °C
As of 5:55 AM on Saturday 29 Nov 2014 (Local Time) from EHVK Reporting Station
Haze Haze  
Wind Chill: 28°   Ceiling: Unl
Heat Index: 36°   Visibility: 3mi
Dew Point: 32°   Wind: 12mph
Humidity: 87%   Direction: 90°E
Pressure: 29.91"   Gusts: NA
Location:  51.75°N, 5.63°E
Report Text: EHVK 290455Z AUTO 09010KT 5000 BR NCD 02/00 Q1013 WHT
Loading
Personal Weather Stations






























Interactive Weather Map New forecast layout! Learn more

10-Day Weather Forecast

Advertisements
Track Severe Weather on mobile